createdAt,value
2019-04-07T00:02:01.117Z,14.23
2019-04-07T00:04:31.080Z,13.30
2019-04-07T00:06:58.824Z,13.78
2019-04-07T00:09:26.129Z,14.07
2019-04-07T00:11:54.165Z,13.80
2019-04-07T00:14:21.461Z,12.98
2019-04-07T00:16:50.599Z,12.78
2019-04-07T00:19:18.126Z,13.88
2019-04-07T00:21:46.029Z,14.20
2019-04-07T00:24:13.644Z,13.45
2019-04-07T00:26:41.621Z,14.00
2019-04-07T00:29:09.743Z,13.70
2019-04-07T00:31:37.372Z,15.10
2019-04-07T00:34:05.290Z,14.33
2019-04-07T00:36:34.080Z,14.28
2019-04-07T00:39:01.562Z,13.85
2019-04-07T00:41:40.277Z,14.00
2019-04-07T00:44:09.785Z,14.50
2019-04-07T00:46:37.143Z,14.35
2019-04-07T00:49:04.265Z,14.33
2019-04-07T00:51:33.337Z,14.40
2019-04-07T00:54:00.684Z,14.78
2019-04-07T00:56:28.475Z,14.13
2019-04-07T00:58:56.397Z,14.38
2019-04-07T01:01:24.447Z,13.95
2019-04-07T01:03:51.517Z,14.45
2019-04-07T01:06:18.765Z,15.58
2019-04-07T01:08:47.847Z,14.70
2019-04-07T01:11:14.835Z,14.63
2019-04-07T01:13:42.728Z,14.83
2019-04-07T01:16:09.829Z,14.60
2019-04-07T01:18:37.115Z,15.32
2019-04-07T01:21:04.815Z,14.73
2019-04-07T01:23:32.470Z,14.33
2019-04-07T01:25:59.609Z,14.95
2019-04-07T01:28:27.483Z,15.32
2019-04-07T01:30:54.587Z,14.98
2019-04-07T01:33:21.797Z,15.48
2019-04-07T01:35:50.277Z,15.25
2019-04-07T01:38:17.892Z,14.95
2019-04-07T01:40:46.738Z,14.85
2019-04-07T01:43:21.711Z,15.65
2019-04-07T01:46:07.072Z,15.43
2019-04-07T01:48:42.224Z,15.80
2019-04-07T01:51:23.709Z,14.85
2019-04-07T01:54:02.107Z,14.18
2019-04-07T01:56:32.643Z,15.20
2019-04-07T01:59:02.573Z,15.63
2019-04-07T02:01:48.134Z,15.32
2019-04-07T02:04:14.956Z,15.05
2019-04-07T02:07:00.826Z,16.00
2019-04-07T02:09:58.620Z,15.15
2019-04-07T02:12:28.925Z,15.25
2019-04-07T02:14:57.773Z,15.23
2019-04-07T02:17:40.597Z,15.58
2019-04-07T02:20:36.095Z,15.72
2019-04-07T02:23:06.340Z,15.60
2019-04-07T02:25:36.160Z,15.25
2019-04-07T02:28:12.185Z,15.23
2019-04-07T02:30:48.055Z,14.98
2019-04-07T02:33:24.329Z,15.15
2019-04-07T02:35:54.439Z,15.43
2019-04-07T02:38:27.471Z,15.55
2019-04-07T02:40:59.888Z,15.15
2019-04-07T02:43:27.668Z,15.45
2019-04-07T02:46:13.076Z,15.72
2019-04-07T02:48:43.378Z,15.75
2019-04-07T02:51:15.751Z,15.93
2019-04-07T02:54:02.424Z,15.20
2019-04-07T02:56:38.288Z,14.83
2019-04-07T02:59:10.239Z,15.83
2019-04-07T03:01:48.482Z,16.03
2019-04-07T03:04:26.809Z,16.42
2019-04-07T03:06:56.815Z,15.93
2019-04-07T03:09:44.529Z,16.60
2019-04-07T03:12:26.140Z,16.30
2019-04-07T03:14:59.261Z,15.83
2019-04-07T03:17:41.588Z,15.70
2019-04-07T03:20:15.336Z,16.93
2019-04-07T03:23:02.162Z,16.87
2019-04-07T03:25:36.853Z,16.77
2019-04-07T03:28:08.814Z,16.20
2019-04-07T03:30:40.495Z,17.52
2019-04-07T03:33:13.384Z,16.65
2019-04-07T03:35:56.762Z,16.70
2019-04-07T03:38:42.872Z,16.02
2019-04-07T03:41:14.134Z,15.72
2019-04-07T03:43:46.453Z,15.93
2019-04-07T03:46:16.053Z,15.93
2019-04-07T03:48:48.067Z,15.15
2019-04-07T03:51:28.802Z,15.35
2019-04-07T03:54:03.481Z,15.98
2019-04-07T03:56:43.578Z,15.65
2019-04-07T03:59:33.296Z,14.80
2019-04-07T04:02:18.531Z,16.52
2019-04-07T04:04:47.358Z,15.23
2019-04-07T04:07:27.585Z,15.83
2019-04-07T04:09:47.607Z,16.12
2019-04-07T04:12:17.416Z,16.05
2019-04-07T04:14:48.715Z,15.10
2019-04-07T04:17:16.459Z,15.35
2019-04-07T04:19:44.023Z,16.50
2019-04-07T04:22:14.137Z,15.60
2019-04-07T04:24:42.185Z,16.97
2019-04-07T04:27:09.225Z,15.15
2019-04-07T04:29:37.390Z,15.88
2019-04-07T04:32:04.429Z,15.78
2019-04-07T04:34:31.869Z,15.98
2019-04-07T04:37:00.086Z,15.63
2019-04-07T04:39:27.288Z,15.68
2019-04-07T04:41:54.323Z,17.02
2019-04-07T04:44:22.459Z,16.60
2019-04-07T04:46:49.405Z,17.42
2019-04-07T04:49:16.978Z,16.60
2019-04-07T04:51:44.537Z,15.72
2019-04-07T04:54:12.516Z,16.62
2019-04-07T04:56:39.886Z,16.40
2019-04-07T04:59:07.437Z,16.62
2019-04-07T05:01:36.083Z,15.85
2019-04-07T05:04:03.936Z,15.50
2019-04-07T05:06:31.273Z,13.80
2019-04-07T05:08:58.260Z,15.55
2019-04-07T05:11:25.028Z,15.03
2019-04-07T05:13:52.847Z,15.63
2019-04-07T05:16:19.918Z,15.32
2019-04-07T05:18:47.064Z,14.90
2019-04-07T05:21:13.963Z,15.13
2019-04-07T05:23:41.298Z,15.43
2019-04-07T05:26:08.508Z,15.88
2019-04-07T05:28:36.995Z,15.53
2019-04-07T05:31:05.618Z,16.62
2019-04-07T05:33:32.691Z,15.80
2019-04-07T05:35:59.641Z,15.08
2019-04-07T05:38:26.536Z,15.53
2019-04-07T05:40:54.095Z,14.23
2019-04-07T05:43:21.480Z,15.63
2019-04-07T05:45:48.986Z,15.48
2019-04-07T05:48:18.532Z,15.13
2019-04-07T05:50:44.949Z,15.68
2019-04-07T05:53:14.772Z,14.93
2019-04-07T05:55:41.720Z,15.28
2019-04-07T05:58:08.826Z,15.18
2019-04-07T06:00:37.146Z,15.10
2019-04-07T06:03:07.842Z,14.63
2019-04-07T06:05:33.452Z,14.75
2019-04-07T06:08:18.722Z,14.93
2019-04-07T06:10:30.570Z,14.38
2019-04-07T06:12:57.445Z,14.58
2019-04-07T06:15:24.730Z,14.78
2019-04-07T06:17:52.210Z,13.65
2019-04-07T06:20:19.374Z,14.90
2019-04-07T06:22:46.973Z,14.58
2019-04-07T06:25:14.627Z,14.87
2019-04-07T06:27:44.927Z,13.93
2019-04-07T06:30:13.084Z,14.23
2019-04-07T06:32:40.808Z,14.23
2019-04-07T06:35:12.320Z,14.43
2019-04-07T06:37:38.715Z,14.47
2019-04-07T06:40:07.019Z,14.93
2019-04-07T06:42:34.317Z,15.55
2019-04-07T06:45:06.501Z,14.83
2019-04-07T06:47:42.205Z,14.20
2019-04-07T06:50:14.201Z,15.15
2019-04-07T06:52:53.147Z,16.00
2019-04-07T06:55:44.927Z,14.65
2019-04-07T06:58:14.413Z,14.95
2019-04-07T07:00:53.606Z,16.37
2019-04-07T07:03:29.409Z,16.00
2019-04-07T07:06:18.395Z,14.43
2019-04-07T07:08:48.664Z,14.38
2019-04-07T07:11:34.354Z,13.83
2019-04-07T07:14:31.404Z,14.65
2019-04-07T07:16:51.069Z,13.35
2019-04-07T07:19:39.159Z,13.62
2019-04-07T07:22:20.374Z,13.58
2019-04-07T07:24:49.123Z,13.72
2019-04-07T07:27:17.647Z,13.15
2019-04-07T07:29:45.842Z,13.05
2019-04-07T07:32:15.926Z,13.43
2019-04-07T07:34:43.941Z,12.88
2019-04-07T07:37:11.699Z,13.40
2019-04-07T07:39:42.596Z,12.85
2019-04-07T07:42:09.402Z,13.10
2019-04-07T07:44:38.512Z,12.75
2019-04-07T07:47:06.896Z,14.07
2019-04-07T07:49:37.078Z,14.13
2019-04-07T07:52:04.027Z,14.45
2019-04-07T07:54:31.622Z,14.18
2019-04-07T07:56:59.115Z,15.18
2019-04-07T07:59:26.298Z,15.43
2019-04-07T08:01:56.250Z,16.15
2019-04-07T08:04:26.415Z,15.48
2019-04-07T08:06:54.415Z,16.00
2019-04-07T08:09:24.961Z,16.25
2019-04-07T08:11:52.623Z,16.70
2019-04-07T08:14:19.917Z,16.25
2019-04-07T08:16:46.802Z,16.40
2019-04-07T08:19:14.530Z,15.93
2019-04-07T08:21:43.659Z,15.50
2019-04-07T08:24:11.311Z,16.67
2019-04-07T08:26:39.339Z,15.75
2019-04-07T08:29:07.754Z,15.43
2019-04-07T08:31:35.261Z,15.48
2019-04-07T08:34:03.751Z,16.35
2019-04-07T08:36:31.374Z,14.87
2019-04-07T08:38:59.489Z,16.27
2019-04-07T08:41:26.719Z,14.93
2019-04-07T08:43:56.654Z,14.00
2019-04-07T08:46:25.163Z,14.47
2019-04-07T08:48:55.302Z,11.60
2019-04-07T08:51:22.496Z,11.38
2019-04-07T08:53:49.624Z,10.78
2019-04-07T08:56:16.708Z,11.18
2019-04-07T08:58:43.837Z,10.88
2019-04-07T09:01:11.010Z,11.57
2019-04-07T09:03:37.826Z,11.22
2019-04-07T09:06:05.106Z,11.00
2019-04-07T09:08:34.670Z,12.00
2019-04-07T09:11:08.990Z,12.10
2019-04-07T09:13:36.334Z,11.45
2019-04-07T09:16:24.698Z,12.20
2019-04-07T09:19:10.189Z,12.65
2019-04-07T09:21:42.005Z,14.13
2019-04-07T09:24:08.315Z,14.05
2019-04-07T09:26:51.071Z,14.83
2019-04-07T09:29:32.847Z,14.63
2019-04-07T09:32:19.266Z,14.33
2019-04-07T09:34:57.238Z,15.15
2019-04-07T09:37:38.806Z,16.62
2019-04-07T09:40:23.563Z,16.57
2019-04-07T09:42:58.731Z,16.02
2019-04-07T09:45:32.495Z,16.15
2019-04-07T09:48:02.177Z,16.37
2019-04-07T09:50:47.069Z,16.73
2019-04-07T09:53:28.633Z,15.98
2019-04-07T09:56:11.931Z,17.07
2019-04-07T09:58:45.376Z,16.30
2019-04-07T10:01:19.811Z,15.30
2019-04-07T10:03:55.396Z,15.08
2019-04-07T10:06:25.647Z,15.78
2019-04-07T10:09:11.336Z,15.48
2019-04-07T10:11:38.550Z,14.90
2019-04-07T10:14:07.914Z,15.15
2019-04-07T10:16:39.512Z,15.45
2019-04-07T10:19:10.959Z,16.80
2019-04-07T10:21:38.310Z,15.63
2019-04-07T10:24:13.248Z,15.90
2019-04-07T10:26:47.332Z,16.10
2019-04-07T10:29:18.768Z,15.80
2019-04-07T10:31:58.595Z,16.02
2019-04-07T10:34:26.002Z,16.62
2019-04-07T10:37:11.723Z,15.50
2019-04-07T10:39:56.020Z,16.42
2019-04-07T10:44:57.167Z,16.62
2019-04-07T10:47:30.268Z,17.05
2019-04-07T10:50:16.888Z,16.65
2019-04-07T10:52:56.286Z,16.20
2019-04-07T10:55:25.508Z,16.15
2019-04-07T10:58:04.390Z,16.97
2019-04-07T11:00:41.322Z,16.67
2019-04-07T11:03:08.366Z,18.00
2019-04-07T11:05:36.284Z,16.27
2019-04-07T11:08:24.409Z,15.13
2019-04-07T11:10:56.243Z,16.95
2019-04-07T11:13:28.937Z,16.57
2019-04-07T11:16:06.202Z,16.65
2019-04-07T11:18:36.410Z,19.50
2019-04-07T11:21:06.200Z,15.98
2019-04-07T11:23:45.262Z,15.85
2019-04-07T11:26:33.201Z,15.23
2019-04-07T11:29:04.375Z,15.95
2019-04-07T11:31:37.071Z,16.50
2019-04-07T11:34:25.433Z,16.00
2019-04-07T11:37:12.180Z,15.25
2019-04-07T11:39:44.643Z,16.20
2019-04-07T11:42:18.479Z,16.52
2019-04-07T11:47:38.064Z,16.05
2019-04-07T11:50:27.970Z,15.78
2019-04-07T11:52:57.267Z,16.00
2019-04-07T11:55:44.263Z,15.98
2019-04-07T11:58:30.456Z,14.83
2019-04-07T12:00:58.213Z,15.72
2019-04-07T12:03:42.909Z,15.45
2019-04-07T12:06:17.066Z,15.00
2019-04-07T12:08:51.116Z,15.00
2019-04-07T12:11:21.304Z,13.83
2019-04-07T12:13:52.568Z,15.25
2019-04-07T12:16:28.683Z,14.27
2019-04-07T12:19:04.496Z,14.33
2019-04-07T12:21:37.187Z,17.25
2019-04-07T12:24:12.333Z,13.55
2019-04-07T12:26:43.632Z,14.05
2019-04-07T12:29:14.202Z,14.47
2019-04-07T12:32:02.372Z,15.53
2019-04-07T12:37:44.575Z,15.00
2019-04-07T12:40:22.337Z,13.95
2019-04-07T12:43:02.586Z,14.63
2019-04-07T12:45:49.367Z,14.80
2019-04-07T12:48:36.280Z,14.70
2019-04-07T12:51:24.657Z,13.78
2019-04-07T12:54:09.486Z,13.72
2019-04-07T12:56:57.750Z,13.20
2019-04-07T12:59:34.708Z,12.75
2019-04-07T13:02:09.326Z,13.40
2019-04-07T13:04:50.596Z,13.90
2019-04-07T13:07:38.718Z,14.98
2019-04-07T13:10:22.386Z,15.72
2019-04-07T13:12:55.809Z,14.03
2019-04-07T13:15:24.824Z,12.95
2019-04-07T13:17:53.699Z,13.20
2019-04-07T13:20:26.716Z,13.85
2019-04-07T13:25:47.415Z,13.25
2019-04-07T13:28:16.749Z,12.75
2019-04-07T13:30:45.660Z,13.00
2019-04-07T13:33:28.403Z,14.07
2019-04-07T13:35:59.464Z,13.35
2019-04-07T13:38:45.765Z,12.35
2019-04-07T13:41:24.002Z,13.00
2019-04-07T13:44:12.980Z,13.75
2019-04-07T13:46:44.466Z,12.88
2019-04-07T13:49:43.047Z,12.45
2019-04-07T13:52:19.287Z,13.35
2019-04-07T13:54:47.268Z,15.68
2019-04-07T13:57:26.464Z,13.13
2019-04-07T13:59:57.810Z,13.10
2019-04-07T14:02:30.206Z,13.38
2019-04-07T14:05:04.872Z,12.73
2019-04-07T14:07:35.206Z,13.22
2019-04-07T14:10:11.332Z,15.00
2019-04-07T14:12:42.235Z,13.43
2019-04-07T14:15:21.624Z,15.40
2019-04-07T14:18:04.830Z,14.83
2019-04-07T14:20:38.785Z,14.78
2019-04-07T14:23:25.274Z,14.30
2019-04-07T14:25:54.898Z,12.55
2019-04-07T14:28:28.742Z,13.05
2019-04-07T14:31:12.804Z,15.10
2019-04-07T14:34:02.200Z,13.00
2019-04-07T14:36:48.180Z,12.65
2019-04-07T14:39:17.570Z,12.93
2019-04-07T14:42:03.954Z,13.30
2019-04-07T14:44:30.416Z,12.98
2019-04-07T14:46:58.156Z,12.88
2019-04-07T14:49:51.566Z,12.58
2019-04-07T14:52:31.831Z,12.65
2019-04-07T14:55:20.606Z,12.68
2019-04-07T14:57:50.257Z,12.35
2019-04-07T15:00:18.348Z,12.07
2019-04-07T15:02:46.616Z,11.97
2019-04-07T15:05:22.180Z,10.32
2019-04-07T15:07:59.499Z,9.88
2019-04-07T15:10:31.734Z,10.50
2019-04-07T15:18:03.790Z,11.00
2019-04-07T15:20:31.157Z,11.25
2019-04-07T15:22:59.917Z,11.00
2019-04-07T15:25:28.822Z,10.82
2019-04-07T15:27:58.900Z,11.70
2019-04-07T15:30:26.498Z,10.38
2019-04-07T15:32:57.706Z,11.80
2019-04-07T15:35:24.359Z,11.43
2019-04-07T15:37:52.459Z,11.45
2019-04-07T15:40:20.374Z,11.05
2019-04-07T15:42:50.700Z,11.03
2019-04-07T15:45:20.579Z,11.43
2019-04-07T15:47:51.321Z,11.08
2019-04-07T15:50:18.087Z,10.98
2019-04-07T15:52:46.969Z,11.65
2019-04-07T15:55:18.871Z,12.00
2019-04-07T15:57:46.756Z,11.93
2019-04-07T16:00:16.531Z,12.37
2019-04-07T16:02:44.389Z,11.70
2019-04-07T16:05:11.743Z,12.43
2019-04-07T16:07:42.054Z,12.18
2019-04-07T16:10:10.115Z,12.13
2019-04-07T16:12:44.564Z,12.73
2019-04-07T16:15:11.259Z,12.40
2019-04-07T16:17:41.292Z,12.80
2019-04-07T16:20:19.915Z,12.07
2019-04-07T16:22:51.898Z,12.33
2019-04-07T16:25:19.646Z,12.13
2019-04-07T16:27:47.665Z,11.43
2019-04-07T16:30:16.474Z,12.13
2019-04-07T16:32:44.965Z,12.45
2019-04-07T16:35:15.580Z,13.35
2019-04-07T16:37:43.812Z,13.25
2019-04-07T16:40:13.033Z,12.15
2019-04-07T16:42:40.490Z,12.40
2019-04-07T16:45:13.773Z,12.80
2019-04-07T16:47:38.950Z,13.20
2019-04-07T16:50:07.621Z,12.58
2019-04-07T16:52:36.428Z,13.13
2019-04-07T16:55:09.273Z,12.55
2019-04-07T16:57:37.414Z,12.37
2019-04-07T17:00:14.380Z,12.78
2019-04-07T17:02:42.779Z,11.68
2019-04-07T17:05:10.080Z,13.22
2019-04-07T17:07:37.048Z,13.32
2019-04-07T17:10:05.007Z,11.57
2019-04-07T17:12:32.349Z,13.40
2019-04-07T17:15:00.169Z,12.78
2019-04-07T17:17:28.169Z,15.88
2019-04-07T17:19:59.491Z,14.73
2019-04-07T17:22:27.228Z,13.03
2019-04-07T17:24:58.220Z,12.15
2019-04-07T17:27:24.839Z,14.00
2019-04-07T17:29:55.048Z,12.58
2019-04-07T17:32:23.128Z,13.70
2019-04-07T17:34:50.887Z,14.18
2019-04-07T17:37:20.089Z,13.40
2019-04-07T17:40:04.523Z,12.53
2019-04-07T17:42:32.349Z,12.30
2019-04-07T17:44:59.634Z,13.65
2019-04-07T17:47:29.574Z,11.90
2019-04-07T17:50:09.259Z,12.37
2019-04-07T17:52:40.457Z,12.68
2019-04-07T17:55:08.144Z,12.18
2019-04-07T17:57:53.494Z,12.05
2019-04-07T18:00:42.568Z,12.33
2019-04-07T18:03:21.621Z,11.90
2019-04-07T18:06:05.865Z,11.80
2019-04-07T18:08:36.206Z,11.85
2019-04-07T18:11:14.297Z,11.12
2019-04-07T18:13:49.900Z,12.18
2019-04-07T18:16:21.324Z,11.63
2019-04-07T18:19:06.812Z,12.05
2019-04-07T18:21:53.870Z,12.28
2019-04-07T18:24:30.830Z,12.37
2019-04-07T18:27:19.505Z,12.05
2019-04-07T18:29:55.166Z,12.20
2019-04-07T18:32:28.632Z,11.30
2019-04-07T18:35:04.190Z,12.55
2019-04-07T18:37:52.786Z,11.48
2019-04-07T18:40:26.292Z,11.22
2019-04-07T18:42:54.506Z,10.98
2019-04-07T18:45:31.902Z,11.88
2019-04-07T18:48:18.114Z,15.83
2019-04-07T18:51:07.974Z,12.63
2019-04-07T18:53:53.189Z,10.58
2019-04-07T18:56:34.632Z,10.82
2019-04-07T18:59:04.293Z,11.15
2019-04-07T19:01:51.065Z,11.10
2019-04-07T19:04:38.106Z,11.40
2019-04-07T19:07:07.823Z,11.50
2019-04-07T19:09:47.703Z,11.08
2019-04-07T19:12:22.994Z,11.60
2019-04-07T19:15:08.219Z,11.20
2019-04-07T19:17:32.657Z,9.93
2019-04-07T19:20:23.813Z,10.08
2019-04-07T19:22:54.062Z,10.00
2019-04-07T19:25:42.642Z,10.32
2019-04-07T19:28:23.198Z,9.10
2019-04-07T19:31:04.447Z,10.40
2019-04-07T19:33:49.405Z,9.40
2019-04-07T19:36:30.580Z,9.00
2019-04-07T19:39:02.784Z,9.30
2019-04-07T19:41:45.418Z,9.58
2019-04-07T19:44:38.502Z,9.73
2019-04-07T19:47:04.639Z,8.43
2019-04-07T19:49:37.460Z,8.48
2019-04-07T19:52:23.488Z,9.08
2019-04-07T19:55:08.892Z,8.53
2019-04-07T19:57:48.402Z,8.20
2019-04-07T20:00:30.959Z,8.58
2019-04-07T20:03:17.812Z,7.85
2019-04-07T20:06:09.932Z,7.85
2019-04-07T20:08:40.071Z,7.10
2019-04-07T20:11:09.814Z,7.50
2019-04-07T20:13:40.978Z,6.58
2019-04-07T20:16:28.334Z,6.80
2019-04-07T20:18:59.478Z,6.78
2019-04-07T20:21:39.050Z,7.17
2019-04-07T20:24:07.364Z,7.25
2019-04-07T20:26:42.685Z,7.67
2019-04-07T20:29:31.082Z,6.72
2019-04-07T20:32:05.172Z,7.33
2019-04-07T20:34:37.437Z,6.80
2019-04-07T20:37:12.872Z,6.65
2019-04-07T20:39:43.459Z,6.08
2019-04-07T20:42:23.583Z,6.22
2019-04-07T20:45:16.259Z,6.42
2019-04-07T20:47:51.336Z,5.72
2019-04-07T20:50:26.284Z,6.00
2019-04-07T20:53:08.370Z,5.80
2019-04-07T20:55:41.264Z,5.65
2019-04-07T20:58:23.871Z,6.00
2019-04-07T21:00:59.683Z,5.92
2019-04-07T21:03:40.417Z,5.17
2019-04-07T21:06:12.636Z,5.37
2019-04-07T21:08:41.946Z,5.00
2019-04-07T21:11:13.586Z,5.12
2019-04-07T21:13:43.047Z,4.83
2019-04-07T21:16:10.562Z,5.10
2019-04-07T21:18:40.285Z,5.15
2019-04-07T21:21:11.935Z,5.28
2019-04-07T21:23:43.333Z,4.78
2019-04-07T21:26:15.512Z,4.97
2019-04-07T21:28:44.412Z,5.20
2019-04-07T21:31:20.414Z,4.85
2019-04-07T21:33:55.875Z,5.08
2019-04-07T21:36:28.594Z,6.10
2019-04-07T21:39:16.233Z,6.05
2019-04-07T21:41:45.188Z,5.83
2019-04-07T21:44:27.011Z,5.10
2019-04-07T21:47:04.326Z,5.10
2019-04-07T21:49:34.752Z,5.28
2019-04-07T21:52:05.407Z,5.10
2019-04-07T21:54:42.999Z,4.75
2019-04-07T21:57:15.147Z,4.67
2019-04-07T21:59:52.173Z,4.45
2019-04-07T22:02:27.447Z,4.70
2019-04-07T22:04:57.022Z,4.85
2019-04-07T22:07:27.658Z,4.25
2019-04-07T22:10:03.843Z,4.33
2019-04-07T22:12:32.564Z,4.67
2019-04-07T22:15:00.334Z,4.50
2019-04-07T22:17:27.693Z,4.55
2019-04-07T22:19:55.069Z,4.30
2019-04-07T22:22:24.089Z,4.10
2019-04-07T22:24:51.559Z,4.12
2019-04-07T22:27:22.644Z,4.35
2019-04-07T22:29:48.982Z,4.37
2019-04-07T22:32:19.240Z,4.30
2019-04-07T22:34:46.114Z,3.92
2019-04-07T22:37:15.572Z,3.92
2019-04-07T22:39:42.258Z,3.98
2019-04-07T22:42:12.807Z,4.37
2019-04-07T22:44:38.587Z,3.95
2019-04-07T22:47:07.011Z,3.85
2019-04-07T22:49:37.692Z,3.60
2019-04-07T22:52:06.514Z,3.72
2019-04-07T22:54:34.925Z,3.75
2019-04-07T22:57:02.875Z,3.45
2019-04-07T22:59:30.197Z,4.00
2019-04-07T23:01:58.048Z,3.67
2019-04-07T23:04:25.842Z,3.40
2019-04-07T23:06:52.878Z,3.40
2019-04-07T23:09:19.691Z,3.50
2019-04-07T23:11:47.035Z,3.25
2019-04-07T23:14:14.582Z,3.00
2019-04-07T23:16:42.261Z,3.12
2019-04-07T23:19:09.615Z,3.30
2019-04-07T23:21:38.298Z,3.20
2019-04-07T23:24:05.522Z,2.90
2019-04-07T23:26:32.574Z,2.70
2019-04-07T23:28:59.527Z,2.80
2019-04-07T23:31:27.887Z,3.00
2019-04-07T23:33:56.537Z,2.70
2019-04-07T23:36:24.245Z,2.58
2019-04-07T23:38:51.960Z,2.90
2019-04-07T23:41:20.178Z,2.52
2019-04-07T23:43:47.807Z,2.83
2019-04-07T23:46:23.172Z,2.80
2019-04-07T23:48:47.604Z,2.42
2019-04-07T23:51:14.501Z,2.42
2019-04-07T23:54:08.998Z,2.45
2019-04-07T23:56:39.424Z,2.50
2019-04-07T23:59:08.073Z,2.27
